Armony — 5IM517 — position and weather

sailwx.info

Track history (hours):
 
Tides and Currents Weather Stations Pressure Air Temp Water Temp Dewpoint Dewpoint Depression Visibility Wind Speed Wind Dir Waves Ship Positions

Armony

Last reported at 2014-Nov-26 16:15 UTC. Time now 2014-Nov-26 17:30 UTC.
Position N 40°51' E 029°11'.

Length 70 m; draft 4.6 m.

Type: Ship. MMSI: 677041700.

Date/timePositionNaut miles runAvg speedWind from/ knotsBaromVisibWave heightAir tempDewpointWater temp
2014-Nov-26 16:15N 40°51' E 029°11'0 0.0
2014-Nov-26 15:30N 40°51' E 029°11'0 0.0
2014-Nov-26 14:24N 40°51' E 029°11'0 0.0
2014-Nov-26 13:24N 40°51' E 029°11'0 0.0
2014-Nov-26 12:30N 40°51' E 029°11'0 0.0
2014-Nov-26 11:24N 40°51' E 029°11'0 0.0
2014-Nov-26 10:18N 40°51' E 029°11'0 0.0
2014-Nov-26 09:30N 40°51' E 029°11'0 0.0
2014-Nov-26 08:30N 40°51' E 029°11'0 0.0
2014-Nov-26 07:24N 40°51' E 029°11'0 0.0
2014-Nov-26 06:24N 40°51' E 029°11'0 0.0
2014-Nov-26 05:18N 40°51' E 029°11'0 0.0
2014-Nov-26 04:30N 40°51' E 029°11'1 1.3
2014-Nov-26 03:33N 40°50' E 029°11'5 4.6
2014-Nov-26 02:33N 40°46' E 029°15'7 7.3
2014-Nov-26 01:32N 40°45' E 029°24'4 0.1
2014-Nov-24 00:14N 40°46' E 029°29'2 0.1
2014-Nov-23 08:23N 40°46' E 029°26'0 0.0
2014-Nov-23 02:17N 40°46' E 029°26'0 0.0
2014-Nov-23 01:05N 40°46' E 029°26'0 0.0
2014-Nov-23 00:11N 40°46' E 029°26'0 0.0
2014-Nov-22 14:29N 40°46' E 029°26'0 0.0
2014-Nov-22 10:21N 40°46' E 029°26'3 3.6
2014-Nov-22 09:33N 40°44' E 029°23'8 7.6
2014-Nov-22 08:33N 40°44' E 029°13'8 7.7
2014-Nov-22 07:33N 40°44' E 029°03'8 7.6
2014-Nov-22 06:30N 40°51' E 028°57'7 7.5
2014-Nov-22 05:33N 40°58' E 028°58'  
Track history (hours):
 
Tides and Currents Weather Stations Pressure Air Temp Water Temp Dewpoint Dewpoint Depression Visibility Wind Speed Wind Dir Waves Ship Positions

Armony

Last reported at 2014-Nov-26 16:15 UTC. Time now 2014-Nov-26 17:30 UTC.
Position N 40°51' E 029°11'.

Length 70 m; draft 4.6 m.

Type: Ship. MMSI: 677041700.

Date/timePositionNaut miles runAvg speedWind from/ knotsBaromVisibWave heightAir tempDewpointWater temp
2014-Nov-26 16:15N 40°51' E 029°11'0 0.0
2014-Nov-26 15:30N 40°51' E 029°11'0 0.0
2014-Nov-26 14:24N 40°51' E 029°11'0 0.0
2014-Nov-26 13:24N 40°51' E 029°11'0 0.0
2014-Nov-26 12:30N 40°51' E 029°11'0 0.0
2014-Nov-26 11:24N 40°51' E 029°11'0 0.0
2014-Nov-26 10:18N 40°51' E 029°11'0 0.0
2014-Nov-26 09:30N 40°51' E 029°11'0 0.0
2014-Nov-26 08:30N 40°51' E 029°11'0 0.0
2014-Nov-26 07:24N 40°51' E 029°11'0 0.0
2014-Nov-26 06:24N 40°51' E 029°11'0 0.0
2014-Nov-26 05:18N 40°51' E 029°11'0 0.0
2014-Nov-26 04:30N 40°51' E 029°11'1 1.3
2014-Nov-26 03:33N 40°50' E 029°11'5 4.6
2014-Nov-26 02:33N 40°46' E 029°15'7 7.3
2014-Nov-26 01:32N 40°45' E 029°24'4 0.1
2014-Nov-24 00:14N 40°46' E 029°29'2 0.1
2014-Nov-23 08:23N 40°46' E 029°26'0 0.0
2014-Nov-23 02:17N 40°46' E 029°26'0 0.0
2014-Nov-23 01:05N 40°46' E 029°26'0 0.0
2014-Nov-23 00:11N 40°46' E 029°26'0 0.0
2014-Nov-22 14:29N 40°46' E 029°26'0 0.0
2014-Nov-22 10:21N 40°46' E 029°26'3 3.6
2014-Nov-22 09:33N 40°44' E 029°23'8 7.6
2014-Nov-22 08:33N 40°44' E 029°13'8 7.7
2014-Nov-22 07:33N 40°44' E 029°03'8 7.6
2014-Nov-22 06:30N 40°51' E 028°57'7 7.5
2014-Nov-22 05:33N 40°58' E 028°58'  

Dump ship's entire track history